createdAt,value
2023-02-18T00:01:40.122Z,100061.48
2023-02-18T00:04:09.392Z,100054.21
2023-02-18T00:06:39.112Z,100043.40
2023-02-18T00:09:09.198Z,100041.67
2023-02-18T00:11:38.747Z,100032.69
2023-02-18T00:14:10.908Z,100029.29
2023-02-18T00:16:41.986Z,100021.27
2023-02-18T00:19:17.618Z,100018.58
2023-02-18T00:21:46.123Z,100008.69
2023-02-18T00:24:15.533Z,100003.73
2023-02-18T00:26:44.010Z,99996.87
2023-02-18T00:29:12.423Z,99985.98
2023-02-18T00:31:41.561Z,99980.66
2023-02-18T00:34:10.429Z,99972.55
2023-02-18T00:36:38.710Z,99956.91
2023-02-18T00:39:09.029Z,99948.46
2023-02-18T00:41:37.203Z,99932.23
2023-02-18T00:44:05.900Z,99927.83
2023-02-18T00:46:35.291Z,99920.88
2023-02-18T00:49:04.410Z,99909.38
2023-02-18T00:51:34.200Z,99899.98
2023-02-18T00:54:06.366Z,99893.07
2023-02-18T00:56:35.262Z,99885.38
2023-02-18T00:59:03.745Z,99878.48
2023-02-18T01:01:31.881Z,99871.97
2023-02-18T01:17:04.692Z,99834.15
2023-02-18T01:19:34.781Z,99814.77
2023-02-18T01:22:03.091Z,99806.14
2023-02-18T01:24:31.984Z,99791.85
2023-02-18T01:27:01.592Z,99780.92
2023-02-18T01:29:29.759Z,99775.18
2023-02-18T01:31:58.134Z,99764.70
2023-02-18T01:34:26.537Z,99757.40
2023-02-18T01:36:55.584Z,99753.74
2023-02-18T01:39:26.868Z,99742.13
2023-02-18T01:41:55.567Z,99739.02
2023-02-18T01:44:25.980Z,99726.95
2023-02-18T01:46:54.097Z,99716.70
2023-02-18T01:49:33.390Z,99710.69
2023-02-18T01:52:07.308Z,99701.63
2023-02-18T01:54:39.841Z,99700.55
2023-02-18T01:57:16.972Z,99700.63
2023-02-18T01:59:55.579Z,99694.71
2023-02-18T02:02:25.514Z,99683.34
2023-02-18T02:04:54.887Z,99673.96
2023-02-18T02:07:24.305Z,99663.98
2023-02-18T02:09:56.630Z,99655.83
2023-02-18T02:13:00.987Z,99649.98
2023-02-18T02:15:47.320Z,99644.27
2023-02-18T02:18:26.110Z,99639.45
2023-02-18T02:21:45.599Z,99636.34
2023-02-18T02:24:39.055Z,99628.31
2023-02-18T02:27:26.590Z,99616.09
2023-02-18T02:30:13.607Z,99613.46
2023-02-18T02:33:07.387Z,99610.39
2023-02-18T02:35:38.832Z,99604.00
2023-02-18T02:38:11.916Z,99593.86
2023-02-18T02:40:52.888Z,99580.64
2023-02-18T02:43:27.199Z,99570.91
2023-02-18T02:46:09.517Z,99570.23
2023-02-18T02:49:03.087Z,99565.45
2023-02-18T02:51:36.278Z,99559.33
2023-02-18T02:54:15.832Z,99553.55
2023-02-18T02:56:44.257Z,99549.31
2023-02-18T02:59:24.907Z,99542.75
2023-02-18T03:02:28.982Z,99532.68
2023-02-18T03:05:10.697Z,99525.52
2023-02-18T03:08:17.022Z,99520.65
2023-02-18T03:11:03.756Z,99515.96
2023-02-18T03:13:36.353Z,99509.23
2023-02-18T03:16:24.521Z,99508.41
2023-02-18T03:19:21.049Z,99500.73
2023-02-18T03:21:53.959Z,99493.08
2023-02-18T03:24:43.190Z,99488.07
2023-02-18T03:27:22.669Z,99480.28
2023-02-18T03:30:13.386Z,99476.98
2023-02-18T03:32:45.080Z,99469.65
2023-02-18T03:35:15.785Z,99467.73
2023-02-18T03:38:03.027Z,99463.13
2023-02-18T03:40:31.317Z,99457.75
2023-02-18T03:43:03.268Z,99449.41
2023-02-18T03:45:32.875Z,99436.92
2023-02-18T03:48:03.250Z,99433.22
2023-02-18T03:50:31.789Z,99436.15
2023-02-18T03:53:00.778Z,99420.41
2023-02-18T03:55:29.063Z,99418.81
2023-02-18T03:57:57.132Z,99408.73
2023-02-18T04:00:25.607Z,99397.38
2023-02-18T04:02:53.677Z,99391.32
2023-02-18T04:05:21.747Z,99389.59
2023-02-18T04:07:50.432Z,99379.31
2023-02-18T04:10:23.125Z,99369.44
2023-02-18T04:12:52.106Z,99357.42
2023-02-18T04:15:20.689Z,99356.70
2023-02-18T04:17:50.399Z,99358.14
2023-02-18T04:20:18.921Z,99349.77
2023-02-18T04:22:47.617Z,99346.04
2023-02-18T04:25:16.391Z,99338.18
2023-02-18T04:27:46.046Z,99333.94
2023-02-18T04:30:14.710Z,99326.45
2023-02-18T04:32:43.747Z,99323.61
2023-02-18T04:35:11.924Z,99311.30
2023-02-18T04:37:40.095Z,99304.30
2023-02-18T04:40:08.821Z,99299.22
2023-02-18T04:42:37.165Z,99292.56
2023-02-18T04:45:06.068Z,99304.09
2023-02-18T04:47:34.538Z,99297.80
2023-02-18T04:50:02.915Z,99290.05
2023-02-18T04:52:31.497Z,99277.90
2023-02-18T04:55:00.293Z,99270.13
2023-02-18T04:57:28.772Z,99270.16
2023-02-18T04:59:57.967Z,99267.42
2023-02-18T05:02:26.718Z,99264.37
2023-02-18T05:04:56.048Z,99257.30
2023-02-18T05:07:24.709Z,99251.11
2023-02-18T05:09:52.817Z,99250.09
2023-02-18T05:12:20.946Z,99248.28
2023-02-18T05:14:48.921Z,99241.09
2023-02-18T05:17:17.040Z,99237.54
2023-02-18T05:19:45.110Z,99237.48
2023-02-18T05:22:13.287Z,99232.55
2023-02-18T05:24:41.776Z,99219.60
2023-02-18T05:27:10.049Z,99215.68
2023-02-18T05:29:38.671Z,99193.95
2023-02-18T05:32:06.882Z,99186.89
2023-02-18T05:34:38.056Z,99191.48
2023-02-18T05:37:06.633Z,99195.08
2023-02-18T05:39:35.412Z,99194.46
2023-02-18T05:42:03.718Z,99192.55
2023-02-18T05:44:34.028Z,99196.56
2023-02-18T05:47:05.111Z,99192.10
2023-02-18T05:49:33.909Z,99188.81
2023-02-18T05:52:02.137Z,99190.73
2023-02-18T05:54:30.713Z,99176.54
2023-02-18T05:56:58.889Z,99188.83
2023-02-18T05:59:27.371Z,99201.65
2023-02-18T06:01:55.697Z,99191.13
2023-02-18T06:04:24.069Z,99174.92
2023-02-18T06:06:52.130Z,99173.33
2023-02-18T06:09:20.447Z,99168.02
2023-02-18T06:11:48.554Z,99161.09
2023-02-18T06:14:16.920Z,99158.76
2023-02-18T06:16:46.126Z,99164.10
2023-02-18T06:19:15.123Z,99162.75
2023-02-18T06:21:43.604Z,99153.55
2023-02-18T06:24:16.910Z,99152.88
2023-02-18T06:26:46.023Z,99151.56
2023-02-18T06:29:15.670Z,99143.06
2023-02-18T06:31:44.427Z,99146.95
2023-02-18T06:34:12.767Z,99145.64
2023-02-18T06:36:41.005Z,99147.02
2023-02-18T06:39:09.323Z,99143.57
2023-02-18T06:41:40.673Z,99149.05
2023-02-18T06:44:08.636Z,99144.81
2023-02-18T06:46:37.649Z,99140.59
2023-02-18T06:49:05.802Z,99143.14
2023-02-18T06:51:34.284Z,99142.52
2023-02-18T06:54:02.458Z,99127.11
2023-02-18T06:56:31.097Z,99127.23
2023-02-18T06:58:59.874Z,99128.61
2023-02-18T07:01:28.515Z,99123.81
2023-02-18T07:03:56.931Z,99122.55
2023-02-18T07:06:25.176Z,99118.74
2023-02-18T07:08:53.313Z,99115.55
2023-02-18T07:11:21.937Z,99110.77
2023-02-18T07:13:50.926Z,99110.23
2023-02-18T07:16:19.441Z,99115.92
2023-02-18T07:18:50.144Z,99113.98
2023-02-18T07:21:18.593Z,99122.27
2023-02-18T07:23:46.900Z,99124.91
2023-02-18T07:26:15.308Z,99128.56
2023-02-18T07:28:48.060Z,99127.96
2023-02-18T07:31:16.597Z,99132.58
2023-02-18T07:33:44.819Z,99128.02
2023-02-18T07:36:13.608Z,99121.59
2023-02-18T07:38:42.932Z,99132.48
2023-02-18T07:41:21.682Z,99141.80
2023-02-18T07:43:50.238Z,99148.25
2023-02-18T07:46:18.905Z,99154.25
2023-02-18T07:48:46.883Z,99156.79
2023-02-18T07:51:15.160Z,99161.09
2023-02-18T07:53:43.504Z,99159.42
2023-02-18T07:56:12.422Z,99155.11
2023-02-18T07:58:40.853Z,99155.30
2023-02-18T08:01:13.091Z,99156.31
2023-02-18T08:03:41.348Z,99159.77
2023-02-18T08:06:25.515Z,99161.48
2023-02-18T08:08:54.080Z,99155.61
2023-02-18T08:11:22.251Z,99149.26
2023-02-18T08:13:51.256Z,99137.94
2023-02-18T08:16:20.106Z,99141.48
2023-02-18T08:18:49.860Z,99139.20
2023-02-18T08:21:18.903Z,99131.06
2023-02-18T08:23:47.537Z,99130.75
2023-02-18T08:26:15.912Z,99123.41
2023-02-18T08:28:44.909Z,99117.27
2023-02-18T08:31:20.465Z,99117.44
2023-02-18T08:33:48.787Z,99116.92
2023-02-18T08:36:17.417Z,99127.94
2023-02-18T08:38:45.710Z,99128.68
2023-02-18T08:41:14.823Z,99129.75
2023-02-18T08:43:43.257Z,99134.46
2023-02-18T08:46:16.161Z,99146.69
2023-02-18T08:49:21.179Z,99150.30
2023-02-18T08:51:50.600Z,99147.45
2023-02-18T08:54:18.906Z,99148.44
2023-02-18T08:56:47.051Z,99147.55
2023-02-18T08:59:15.368Z,99142.30
2023-02-18T09:01:43.888Z,99143.76
2023-02-18T09:04:12.236Z,99145.47
2023-02-18T09:06:40.746Z,99152.57
2023-02-18T09:09:10.389Z,99149.36
2023-02-18T09:11:44.571Z,99155.34
2023-02-18T09:14:13.076Z,99160.34
2023-02-18T09:16:41.675Z,99146.70
2023-02-18T09:19:10.280Z,99150.04
2023-02-18T09:21:39.032Z,99152.30
2023-02-18T09:24:07.683Z,99144.20
2023-02-18T09:26:36.200Z,99149.73
2023-02-18T09:29:04.377Z,99144.03
2023-02-18T09:31:34.685Z,99146.80
2023-02-18T09:34:03.107Z,99146.91
2023-02-18T09:36:32.122Z,99148.86
2023-02-18T09:39:00.247Z,99143.23
2023-02-18T09:41:39.679Z,99145.41
2023-02-18T09:44:34.402Z,99151.45
2023-02-18T09:47:04.006Z,99148.54
2023-02-18T09:49:34.620Z,99148.87
2023-02-18T09:52:12.932Z,99144.98
2023-02-18T09:54:41.358Z,99149.80
2023-02-18T09:57:43.415Z,99148.88
2023-02-18T10:00:18.724Z,99150.66
2023-02-18T10:03:11.331Z,99149.98
2023-02-18T10:06:03.252Z,99149.84
2023-02-18T10:08:46.221Z,99152.10
2023-02-18T10:11:16.903Z,99148.52
2023-02-18T10:13:45.146Z,99148.14
2023-02-18T10:16:18.263Z,99144.92
2023-02-18T10:18:54.502Z,99142.45
2023-02-18T10:21:25.738Z,99142.11
2023-02-18T10:24:32.823Z,99145.91
2023-02-18T10:27:02.837Z,99148.95
2023-02-18T10:29:32.395Z,99154.89
2023-02-18T10:32:23.978Z,99147.75
2023-02-18T10:35:20.471Z,99155.79
2023-02-18T10:37:54.524Z,99147.99
2023-02-18T10:40:41.636Z,99153.02
2023-02-18T10:43:24.360Z,99159.02
2023-02-18T10:46:22.896Z,99154.11
2023-02-18T10:49:06.527Z,99154.43
2023-02-18T10:51:35.788Z,99149.31
2023-02-18T10:54:04.185Z,99156.15
2023-02-18T10:56:35.725Z,99164.92
2023-02-18T10:59:33.617Z,99151.00
2023-02-18T11:02:14.378Z,99134.10
2023-02-18T11:04:43.189Z,99138.11
2023-02-18T11:07:22.758Z,99150.34
2023-02-18T11:09:54.709Z,99145.07
2023-02-18T11:12:24.442Z,99139.77
2023-02-18T11:15:06.467Z,99144.67
2023-02-18T11:17:37.961Z,99144.09
2023-02-18T11:20:21.696Z,99139.29
2023-02-18T11:22:50.330Z,99140.81
2023-02-18T11:25:23.730Z,99145.56
2023-02-18T11:27:58.865Z,99149.13
2023-02-18T11:30:38.220Z,99148.02
2023-02-18T11:33:16.115Z,99149.85
2023-02-18T11:35:57.179Z,99147.58
2023-02-18T11:38:37.112Z,99145.39
2023-02-18T11:41:10.237Z,99139.27
2023-02-18T11:43:42.396Z,99143.98
2023-02-18T11:46:15.850Z,99135.85
2023-02-18T11:48:44.070Z,99142.81
2023-02-18T11:51:19.867Z,99143.55
2023-02-18T11:54:21.266Z,99153.75
2023-02-18T11:57:00.653Z,99147.66
2023-02-18T11:59:30.525Z,99144.07
2023-02-18T12:02:11.138Z,99145.15
2023-02-18T12:04:48.398Z,99142.52
2023-02-18T12:07:27.214Z,99148.58
2023-02-18T12:09:57.189Z,99145.05
2023-02-18T12:12:28.939Z,99148.18
2023-02-18T12:15:00.685Z,99140.50
2023-02-18T12:18:24.374Z,99148.90
2023-02-18T12:21:05.119Z,99155.34
2023-02-18T12:23:38.629Z,99140.50
2023-02-18T12:26:19.046Z,99146.20
2023-02-18T12:29:00.022Z,99138.39
2023-02-18T12:32:17.854Z,99147.48
2023-02-18T12:34:52.986Z,99148.20
2023-02-18T12:37:57.587Z,99149.80
2023-02-18T12:40:40.853Z,99162.92
2023-02-18T12:43:16.753Z,99153.56
2023-02-18T12:46:08.276Z,99154.20
2023-02-18T12:48:51.756Z,99153.27
2023-02-18T12:51:32.974Z,99139.50
2023-02-18T12:54:22.824Z,99153.42
2023-02-18T12:57:14.864Z,99157.64
2023-02-18T13:00:01.536Z,99154.92
2023-02-18T13:02:53.365Z,99155.23
2023-02-18T13:05:30.638Z,99166.20
2023-02-18T13:08:14.018Z,99169.81
2023-02-18T13:11:02.973Z,99178.98
2023-02-18T13:13:35.701Z,99179.82
2023-02-18T13:16:11.161Z,99175.06
2023-02-18T13:18:42.653Z,99180.64
2023-02-18T13:21:15.130Z,99186.23
2023-02-18T13:35:42.362Z,99195.79
2023-02-18T13:38:48.015Z,99202.28
2023-02-18T13:41:14.703Z,99194.54
2023-02-18T13:43:41.600Z,99198.65
2023-02-18T13:46:19.261Z,99203.53
2023-02-18T13:49:06.926Z,99219.42
2023-02-18T13:51:50.870Z,99206.92
2023-02-18T13:54:29.283Z,99217.92
2023-02-18T13:57:06.770Z,99218.21
2023-02-18T13:59:41.308Z,99223.78
2023-02-18T14:02:35.691Z,99225.82
2023-02-18T14:05:08.654Z,99238.16
2023-02-18T14:07:35.736Z,99230.30
2023-02-18T14:10:17.961Z,99232.60
2023-02-18T14:12:57.685Z,99226.94
2023-02-18T14:15:24.482Z,99235.49
2023-02-18T14:17:58.532Z,99239.17
2023-02-18T14:20:31.930Z,99241.20
2023-02-18T14:22:59.110Z,99225.09
2023-02-18T14:25:38.158Z,99222.56
2023-02-18T14:28:33.732Z,99222.70
2023-02-18T14:31:30.288Z,99225.86
2023-02-18T14:34:22.330Z,99228.04
2023-02-18T14:37:26.848Z,99230.46
2023-02-18T14:40:20.776Z,99231.63
2023-02-18T14:42:57.171Z,99235.06
2023-02-18T14:45:45.321Z,99240.67
2023-02-18T14:48:24.854Z,99238.52
2023-02-18T14:50:52.392Z,99241.42
2023-02-18T14:53:22.762Z,99243.41
2023-02-18T14:55:51.224Z,99242.48
2023-02-18T14:58:31.992Z,99251.17
2023-02-18T15:01:06.312Z,99246.01
2023-02-18T15:03:33.156Z,99239.81
2023-02-18T15:06:00.013Z,99242.57
2023-02-18T15:08:27.660Z,99240.64
2023-02-18T15:11:02.904Z,99248.28
2023-02-18T15:13:36.718Z,99242.48
2023-02-18T15:16:08.479Z,99241.71
2023-02-18T15:18:38.096Z,99240.41
2023-02-18T15:21:14.887Z,99243.88
2023-02-18T15:23:41.791Z,99247.08
2023-02-18T15:26:12.936Z,99248.55
2023-02-18T15:28:53.927Z,99251.38
2023-02-18T15:31:25.309Z,99248.67
2023-02-18T15:33:53.020Z,99251.27
2023-02-18T15:36:19.966Z,99251.71
2023-02-18T15:38:47.522Z,99249.60
2023-02-18T15:41:15.595Z,99253.98
2023-02-18T15:43:58.519Z,99261.95
2023-02-18T15:46:25.963Z,99265.40
2023-02-18T15:48:53.132Z,99266.17
2023-02-18T15:51:24.881Z,99272.42
2023-02-18T15:53:53.892Z,99271.64
2023-02-18T15:56:28.503Z,99271.11
2023-02-18T15:59:25.861Z,99278.88
2023-02-18T16:01:54.897Z,99272.70
2023-02-18T16:04:23.346Z,99275.17
2023-02-18T16:06:52.197Z,99279.48
2023-02-18T16:09:23.686Z,99278.81
2023-02-18T16:11:58.714Z,99270.88
2023-02-18T16:14:42.185Z,99277.44
2023-02-18T16:17:12.168Z,99278.70
2023-02-18T16:19:46.969Z,99287.17
2023-02-18T16:22:26.538Z,99289.06
2023-02-18T16:24:56.732Z,99287.80
2023-02-18T16:27:28.117Z,99292.63
2023-02-18T16:30:29.879Z,99298.12
2023-02-18T16:32:58.008Z,99294.86
2023-02-18T16:35:26.442Z,99293.71
2023-02-18T16:37:57.057Z,99300.71
2023-02-18T16:40:33.094Z,99300.68
2023-02-18T16:43:12.151Z,99300.45
2023-02-18T16:45:40.533Z,99301.37
2023-02-18T16:48:30.107Z,99300.07
2023-02-18T16:50:59.334Z,99303.09
2023-02-18T16:53:26.201Z,99299.16
2023-02-18T16:55:53.110Z,99297.34
2023-02-18T16:58:20.828Z,99299.21
2023-02-18T17:00:49.363Z,99305.53
2023-02-18T17:03:16.425Z,99306.61
2023-02-18T17:05:43.676Z,99302.38
2023-02-18T17:08:18.364Z,99308.66
2023-02-18T17:10:46.614Z,99307.01
2023-02-18T17:13:15.328Z,99309.24
2023-02-18T17:15:42.600Z,99322.78
2023-02-18T17:18:09.426Z,99315.25
2023-02-18T17:20:40.054Z,99311.41
2023-02-18T17:23:07.212Z,99310.61
2023-02-18T17:25:35.628Z,99312.17
2023-02-18T17:28:02.635Z,99312.38
2023-02-18T17:30:30.450Z,99312.15
2023-02-18T17:33:00.992Z,99316.09
2023-02-18T17:35:29.714Z,99315.27
2023-02-18T17:37:57.076Z,99318.63
2023-02-18T17:40:26.373Z,99315.27
2023-02-18T17:42:54.344Z,99319.20
2023-02-18T17:45:28.354Z,99317.98
2023-02-18T17:47:57.801Z,99320.08
2023-02-18T17:50:26.035Z,99317.14
2023-02-18T17:52:53.480Z,99312.75
2023-02-18T17:55:33.344Z,99317.20
2023-02-18T17:58:01.212Z,99316.33
2023-02-18T18:00:33.787Z,99319.08
2023-02-18T18:03:03.191Z,99319.66
2023-02-18T18:05:32.895Z,99317.52
2023-02-18T18:08:00.659Z,99316.29
2023-02-18T18:10:31.519Z,99315.15
2023-02-18T18:12:59.465Z,99312.51
2023-02-18T18:15:26.334Z,99313.17
2023-02-18T18:17:54.033Z,99315.84
2023-02-18T18:20:20.887Z,99310.89
2023-02-18T18:22:47.529Z,99312.20
2023-02-18T18:25:24.845Z,99313.65
2023-02-18T18:27:52.348Z,99313.91
2023-02-18T18:30:24.016Z,99309.88
2023-02-18T18:32:51.232Z,99314.88
2023-02-18T18:35:20.632Z,99314.80
2023-02-18T18:37:47.339Z,99312.02
2023-02-18T18:40:14.254Z,99312.39
2023-02-18T18:42:41.157Z,99314.34
2023-02-18T18:45:15.662Z,99317.65
2023-02-18T18:47:42.568Z,99316.26
2023-02-18T18:50:09.806Z,99315.66
2023-02-18T18:52:37.020Z,99314.51
2023-02-18T18:55:04.087Z,99317.14
2023-02-18T18:57:31.221Z,99318.30
2023-02-18T18:59:58.018Z,99312.30
2023-02-18T19:02:25.018Z,99315.15
2023-02-18T19:04:55.331Z,99312.79
2023-02-18T19:07:22.205Z,99319.41
2023-02-18T19:09:49.331Z,99315.02
2023-02-18T19:12:16.485Z,99317.97
2023-02-18T19:14:43.521Z,99322.80
2023-02-18T19:17:12.309Z,99324.05
2023-02-18T19:19:39.256Z,99320.02
2023-02-18T19:22:05.988Z,99320.23
2023-02-18T19:24:32.855Z,99314.54
2023-02-18T19:26:59.684Z,99319.48
2023-02-18T19:29:26.525Z,99313.87
2023-02-18T19:31:53.808Z,99305.58
2023-02-18T19:34:23.896Z,99313.71
2023-02-18T19:36:51.765Z,99310.23
2023-02-18T19:39:19.026Z,99300.27
2023-02-18T19:41:46.011Z,99302.04
2023-02-18T19:44:19.568Z,99300.23
2023-02-18T19:46:46.558Z,99303.84
2023-02-18T19:49:13.217Z,99298.05
2023-02-18T19:51:40.912Z,99302.75
2023-02-18T19:54:07.764Z,99293.60
2023-02-18T19:56:36.653Z,99291.69
2023-02-18T19:59:03.791Z,99289.95
2023-02-18T20:01:32.755Z,99288.16
2023-02-18T20:04:00.186Z,99286.25
2023-02-18T20:06:27.943Z,99287.36
2023-02-18T20:08:55.281Z,99289.40
2023-02-18T20:11:22.420Z,99289.69
2023-02-18T20:13:49.932Z,99289.44
2023-02-18T20:16:17.064Z,99289.21
2023-02-18T20:18:43.976Z,99284.92
2023-02-18T20:21:12.269Z,99283.41
2023-02-18T20:23:42.682Z,99283.01
2023-02-18T20:26:10.265Z,99284.07
2023-02-18T20:28:37.395Z,99284.24
2023-02-18T20:31:10.460Z,99280.84
2023-02-18T20:33:37.663Z,99276.75
2023-02-18T20:36:06.688Z,99277.73
2023-02-18T20:38:35.203Z,99286.28
2023-02-18T20:41:06.374Z,99283.80
2023-02-18T20:43:37.025Z,99281.02
2023-02-18T20:46:04.885Z,99283.31
2023-02-18T20:48:32.510Z,99289.30
2023-02-18T20:51:07.567Z,99282.64
2023-02-18T20:53:35.581Z,99278.11
2023-02-18T20:56:03.284Z,99272.93
2023-02-18T20:58:30.863Z,99276.83
2023-02-18T21:01:04.751Z,99280.17
2023-02-18T21:03:32.209Z,99278.52
2023-02-18T21:06:10.670Z,99284.02
2023-02-18T21:08:40.681Z,99283.52
2023-02-18T21:11:11.352Z,99283.27
2023-02-18T21:13:39.140Z,99282.31
2023-02-18T21:16:07.649Z,99282.27
2023-02-18T21:18:34.914Z,99278.59
2023-02-18T21:21:02.744Z,99277.29
2023-02-18T21:23:32.896Z,99272.36
2023-02-18T21:26:08.097Z,99272.98
2023-02-18T21:28:35.042Z,99274.23
2023-02-18T21:31:02.378Z,99272.98
2023-02-18T21:33:29.688Z,99274.20
2023-02-18T21:36:00.805Z,99278.33
2023-02-18T21:38:27.943Z,99286.07
2023-02-18T21:40:55.155Z,99286.00
2023-02-18T21:43:21.938Z,99284.65
2023-02-18T21:45:48.559Z,99284.51
2023-02-18T21:48:34.673Z,99277.71
2023-02-18T21:51:03.359Z,99278.85
2023-02-18T21:53:30.360Z,99283.08
2023-02-18T21:56:03.533Z,99284.38
2023-02-18T21:58:30.959Z,99290.95
2023-02-18T22:00:57.813Z,99294.67
2023-02-18T22:03:24.851Z,99294.13
2023-02-18T22:05:51.589Z,99291.67
2023-02-18T22:08:20.619Z,99297.61
2023-02-18T22:10:47.630Z,99302.79
2023-02-18T22:13:16.831Z,99300.52
2023-02-18T22:15:43.777Z,99302.09
2023-02-18T22:18:10.617Z,99299.71
2023-02-18T22:20:39.019Z,99298.02
2023-02-18T22:23:05.841Z,99299.60
2023-02-18T22:25:32.685Z,99304.96
2023-02-18T22:27:59.525Z,99307.81
2023-02-18T22:30:26.387Z,99309.44
2023-02-18T22:32:53.414Z,99307.52
2023-02-18T22:35:21.793Z,99310.20
2023-02-18T22:37:48.737Z,99313.35
2023-02-18T22:40:15.784Z,99314.59
2023-02-18T22:42:42.630Z,99308.55
2023-02-18T22:45:10.190Z,99308.27
2023-02-18T22:47:37.297Z,99310.39
2023-02-18T22:50:05.107Z,99307.02
2023-02-18T22:52:34.402Z,99316.55
2023-02-18T22:55:01.145Z,99313.48
2023-02-18T22:57:29.933Z,99311.01
2023-02-18T22:59:56.825Z,99313.00
2023-02-18T23:02:24.854Z,99310.77
2023-02-18T23:04:51.879Z,99313.95
2023-02-18T23:07:19.768Z,99318.56
2023-02-18T23:09:46.812Z,99320.16
2023-02-18T23:12:13.654Z,99322.89
2023-02-18T23:14:43.876Z,99321.53
2023-02-18T23:17:13.809Z,99320.50
2023-02-18T23:19:42.277Z,99320.92
2023-02-18T23:22:10.140Z,99323.52
2023-02-18T23:24:39.257Z,99322.58
2023-02-18T23:27:07.895Z,99325.20
2023-02-18T23:29:35.076Z,99326.79
2023-02-18T23:32:02.192Z,99325.02
2023-02-18T23:34:30.304Z,99321.32
2023-02-18T23:36:59.432Z,99321.31
2023-02-18T23:39:26.543Z,99311.34
2023-02-18T23:41:53.189Z,99316.33
2023-02-18T23:44:22.021Z,99314.59
2023-02-18T23:46:48.896Z,99317.81
2023-02-18T23:49:17.502Z,99319.25
2023-02-18T23:51:44.354Z,99318.55
2023-02-18T23:54:11.290Z,99323.02
2023-02-18T23:56:38.241Z,99325.55
2023-02-18T23:59:06.012Z,99327.95
